createdAt,value
2024-01-07T00:00:08.009Z,100321.41
2024-01-07T00:02:35.753Z,100320.06
2024-01-07T00:05:03.537Z,100320.56
2024-01-07T00:07:31.276Z,100318.72
2024-01-07T00:09:59.001Z,100318.91
2024-01-07T00:12:27.559Z,100317.59
2024-01-07T00:15:00.921Z,100321.47
2024-01-07T00:17:33.058Z,100331.78
2024-01-07T00:20:06.067Z,100330.09
2024-01-07T00:22:33.896Z,100335.84
2024-01-07T00:25:03.396Z,100335.22
2024-01-07T00:27:32.733Z,100339.59
2024-01-07T00:30:02.104Z,100346.03
2024-01-07T00:32:31.444Z,100334.66
2024-01-07T00:34:59.357Z,100348.09
2024-01-07T00:37:27.156Z,100354.00
2024-01-07T00:39:54.973Z,100352.84
2024-01-07T00:42:22.866Z,100354.56
2024-01-07T00:44:51.170Z,100350.28
2024-01-07T00:47:21.990Z,100356.22
2024-01-07T00:49:53.210Z,100352.81
2024-01-07T00:52:24.072Z,100353.34
2024-01-07T00:54:55.099Z,100365.56
2024-01-07T00:57:26.259Z,100368.44
2024-01-07T00:59:59.203Z,100371.19
2024-01-07T01:02:28.857Z,100378.88
2024-01-07T01:04:58.425Z,100371.53
2024-01-07T01:07:29.320Z,100373.22
2024-01-07T01:09:59.309Z,100392.25
2024-01-07T01:12:30.224Z,100384.97
2024-01-07T01:15:02.311Z,100386.81
2024-01-07T01:17:36.185Z,100387.34
2024-01-07T01:20:08.036Z,100397.66
2024-01-07T01:22:42.196Z,100401.56
2024-01-07T01:25:16.290Z,100408.19
2024-01-07T01:27:47.367Z,100410.44
2024-01-07T01:30:21.370Z,100409.25
2024-01-07T01:32:53.387Z,100415.69
2024-01-07T01:35:21.114Z,100413.63
2024-01-07T01:37:48.942Z,100409.56
2024-01-07T01:40:16.700Z,100414.31
2024-01-07T01:42:44.443Z,100427.22
2024-01-07T01:45:12.106Z,100427.88
2024-01-07T01:47:39.791Z,100432.78
2024-01-07T01:50:07.505Z,100434.31
2024-01-07T01:52:36.003Z,100429.41
2024-01-07T01:55:03.885Z,100440.44
2024-01-07T01:57:31.683Z,100439.25
2024-01-07T02:00:03.553Z,100443.66
2024-01-07T02:02:32.681Z,100445.38
2024-01-07T02:05:00.544Z,100446.34
2024-01-07T02:07:28.870Z,100456.38
2024-01-07T02:09:56.634Z,100448.41
2024-01-07T02:12:24.343Z,100457.25
2024-01-07T02:14:52.061Z,100454.38
2024-01-07T02:17:19.909Z,100457.06
2024-01-07T02:19:47.982Z,100455.03
2024-01-07T02:22:15.774Z,100463.53
2024-01-07T02:24:43.577Z,100462.88
2024-01-07T02:27:11.331Z,100462.34
2024-01-07T02:29:39.133Z,100465.59
2024-01-07T02:32:06.876Z,100466.41
2024-01-07T02:34:35.048Z,100466.75
2024-01-07T02:37:02.909Z,100466.78
2024-01-07T02:39:30.624Z,100470.66
2024-01-07T02:41:58.331Z,100455.19
2024-01-07T02:44:26.053Z,100469.50
2024-01-07T02:46:53.736Z,100465.03
2024-01-07T02:49:21.547Z,100461.81
2024-01-07T02:51:50.681Z,100467.09
2024-01-07T02:54:18.589Z,100479.50
2024-01-07T02:56:46.244Z,100474.38
2024-01-07T02:59:13.872Z,100467.28
2024-01-07T03:01:43.803Z,100480.84
2024-01-07T03:04:14.267Z,100483.56
2024-01-07T03:06:41.987Z,100479.47
2024-01-07T03:09:11.379Z,100488.81
2024-01-07T03:11:39.083Z,100493.94
2024-01-07T03:14:06.759Z,100490.69
2024-01-07T03:16:34.366Z,100496.13
2024-01-07T03:19:03.287Z,100503.06
2024-01-07T03:21:31.345Z,100492.72
2024-01-07T03:23:59.103Z,100498.81
2024-01-07T03:26:26.868Z,100495.44
2024-01-07T03:28:54.569Z,100491.19
2024-01-07T03:31:24.527Z,100489.66
2024-01-07T03:33:52.500Z,100491.38
2024-01-07T03:36:20.445Z,100484.41
2024-01-07T03:38:48.148Z,100486.63
2024-01-07T03:41:15.833Z,100496.13
2024-01-07T03:43:43.596Z,100503.44
2024-01-07T03:46:11.274Z,100506.97
2024-01-07T03:48:39.035Z,100501.19
2024-01-07T03:51:06.811Z,100496.81
2024-01-07T03:53:34.524Z,100512.25
2024-01-07T03:56:02.311Z,100513.44
2024-01-07T03:58:30.020Z,100520.75
2024-01-07T04:00:58.314Z,100510.03
2024-01-07T04:03:26.201Z,100522.78
2024-01-07T04:08:38.632Z,100524.47
2024-01-07T04:11:06.524Z,100531.41
2024-01-07T04:13:34.194Z,100530.03
2024-01-07T04:16:01.898Z,100527.66
2024-01-07T04:18:30.013Z,100535.66
2024-01-07T04:20:58.211Z,100532.94
2024-01-07T04:23:28.013Z,100552.44
2024-01-07T04:25:56.235Z,100542.78
2024-01-07T04:28:29.728Z,100552.31
2024-01-07T04:31:01.406Z,100548.41
2024-01-07T04:33:32.208Z,100550.28
2024-01-07T04:36:05.922Z,100555.34
2024-01-07T04:38:39.950Z,100560.94
2024-01-07T04:41:16.185Z,100553.81
2024-01-07T04:43:52.212Z,100548.03
2024-01-07T04:46:28.276Z,100552.63
2024-01-07T04:48:58.936Z,100555.34
2024-01-07T04:51:31.703Z,100558.06
2024-01-07T04:54:04.668Z,100565.38
2024-01-07T04:56:39.593Z,100561.97
2024-01-07T04:59:16.790Z,100575.53
2024-01-07T05:01:52.696Z,100574.16
2024-01-07T05:04:26.013Z,100573.66
2024-01-07T05:06:56.181Z,100575.88
2024-01-07T05:09:28.032Z,100581.47
2024-01-07T05:12:04.599Z,100595.38
2024-01-07T05:14:41.879Z,100596.56
2024-01-07T05:17:13.802Z,100604.03
2024-01-07T05:19:41.532Z,100597.22
2024-01-07T05:22:09.392Z,100601.47
2024-01-07T05:24:37.116Z,100603.19
2024-01-07T05:27:04.845Z,100606.25
2024-01-07T05:29:32.692Z,100615.44
2024-01-07T05:32:01.437Z,100615.59
2024-01-07T05:34:29.295Z,100620.69
2024-01-07T05:36:57.241Z,100621.00
2024-01-07T05:39:25.253Z,100624.50
2024-01-07T05:41:53.323Z,100628.03
2024-01-07T05:44:30.164Z,100629.72
2024-01-07T05:47:03.203Z,100627.19
2024-01-07T05:49:37.032Z,100628.41
2024-01-07T05:52:05.573Z,100635.16
2024-01-07T05:54:33.431Z,100635.00
2024-01-07T05:57:01.206Z,100632.47
2024-01-07T05:59:31.346Z,100638.41
2024-01-07T06:02:05.333Z,100637.72
2024-01-07T06:04:35.765Z,100649.94
2024-01-07T06:07:05.996Z,100645.91
2024-01-07T06:09:37.280Z,100659.09
2024-01-07T06:12:07.793Z,100659.22
2024-01-07T06:14:36.607Z,100664.69
2024-01-07T06:17:05.180Z,100663.44
2024-01-07T06:19:33.519Z,100656.09
2024-01-07T06:22:01.254Z,100659.97
2024-01-07T06:24:28.927Z,100658.47
2024-01-07T06:26:56.596Z,100668.34
2024-01-07T06:29:24.269Z,100674.81
2024-01-07T06:31:52.016Z,100674.63
2024-01-07T06:34:20.215Z,100677.19
2024-01-07T06:36:47.962Z,100682.59
2024-01-07T06:39:16.067Z,100677.25
2024-01-07T06:41:43.977Z,100675.34
2024-01-07T06:44:11.613Z,100685.50
2024-01-07T06:46:39.228Z,100692.31
2024-01-07T06:49:06.925Z,100697.31
2024-01-07T06:51:34.742Z,100692.19
2024-01-07T06:54:02.439Z,100704.47
2024-01-07T06:56:30.115Z,100714.28
2024-01-07T06:58:57.791Z,100713.22
2024-01-07T07:01:25.632Z,100709.97
2024-01-07T07:03:53.683Z,100715.66
2024-01-07T07:06:21.482Z,100726.69
2024-01-07T07:08:49.110Z,100730.56
2024-01-07T07:11:16.974Z,100735.59
2024-01-07T07:13:44.657Z,100725.25
2024-01-07T07:16:13.483Z,100740.38
2024-01-07T07:18:41.387Z,100743.63
2024-01-07T07:21:09.480Z,100737.16
2024-01-07T07:23:37.306Z,100739.53
2024-01-07T07:26:04.966Z,100748.38
2024-01-07T07:28:32.633Z,100747.53
2024-01-07T07:31:00.496Z,100744.47
2024-01-07T07:33:28.415Z,100741.88
2024-01-07T07:35:56.248Z,100745.59
2024-01-07T07:38:24.150Z,100757.13
2024-01-07T07:40:54.418Z,100753.56
2024-01-07T07:43:22.684Z,100765.44
2024-01-07T07:45:50.555Z,100773.09
2024-01-07T07:48:18.919Z,100774.97
2024-01-07T07:50:46.566Z,100784.66
2024-01-07T07:53:14.228Z,100786.03
2024-01-07T07:55:41.872Z,100794.38
2024-01-07T07:58:09.836Z,100799.81
2024-01-07T08:00:37.988Z,100806.91
2024-01-07T08:03:05.744Z,100804.84
2024-01-07T08:05:33.545Z,100804.34
2024-01-07T08:08:01.274Z,100811.97
2024-01-07T08:10:29.753Z,100805.06
2024-01-07T08:12:57.676Z,100816.41
2024-01-07T08:15:27.268Z,100809.09
2024-01-07T08:17:55.034Z,100811.25
2024-01-07T08:20:23.590Z,100810.53
2024-01-07T08:22:51.792Z,100817.97
2024-01-07T08:25:19.638Z,100825.59
2024-01-07T08:27:50.284Z,100834.53
2024-01-07T08:30:19.776Z,100835.53
2024-01-07T08:32:47.656Z,100829.88
2024-01-07T08:35:17.841Z,100833.22
2024-01-07T08:37:46.939Z,100837.03
2024-01-07T08:40:15.179Z,100842.66
2024-01-07T08:42:43.147Z,100850.28
2024-01-07T08:45:10.814Z,100850.59
2024-01-07T08:47:43.036Z,100852.75
2024-01-07T08:50:13.938Z,100849.75
2024-01-07T08:52:41.790Z,100853.09
2024-01-07T08:55:11.188Z,100856.75
2024-01-07T08:57:39.229Z,100845.91
2024-01-07T09:00:08.741Z,100850.00
2024-01-07T09:02:39.543Z,100854.38
2024-01-07T09:05:08.642Z,100859.94
2024-01-07T09:07:36.385Z,100863.38
2024-01-07T09:10:04.285Z,100873.06
2024-01-07T09:12:32.030Z,100877.63
2024-01-07T09:15:00.622Z,100873.00
2024-01-07T09:17:30.389Z,100884.31
2024-01-07T09:20:00.760Z,100884.31
2024-01-07T09:22:30.477Z,100897.03
2024-01-07T09:24:59.801Z,100891.28
2024-01-07T09:27:30.113Z,100907.72
2024-01-07T09:29:59.373Z,100906.88
2024-01-07T09:32:29.046Z,100895.31
2024-01-07T09:34:56.929Z,100904.88
2024-01-07T09:37:24.903Z,100904.31
2024-01-07T09:39:52.599Z,100910.28
2024-01-07T09:42:20.433Z,100904.94
2024-01-07T09:44:48.327Z,100904.78
2024-01-07T09:47:16.096Z,100904.09
2024-01-07T09:49:45.459Z,100900.91
2024-01-07T09:52:13.568Z,100908.28
2024-01-07T09:54:41.876Z,100896.34
2024-01-07T09:57:09.631Z,100898.72
2024-01-07T09:59:38.148Z,100906.56
2024-01-07T10:02:06.114Z,100903.13
2024-01-07T10:04:34.219Z,100913.84
2024-01-07T10:07:02.052Z,100907.97
2024-01-07T10:09:29.874Z,100907.13
2024-01-07T10:11:57.914Z,100907.31
2024-01-07T10:14:27.567Z,100905.25
2024-01-07T10:16:55.360Z,100906.09
2024-01-07T10:19:23.735Z,100913.38
2024-01-07T10:21:51.616Z,100923.06
2024-01-07T10:24:21.714Z,100916.09
2024-01-07T10:26:52.158Z,100911.97
2024-01-07T10:29:23.800Z,100914.16
2024-01-07T10:31:52.075Z,100919.81
2024-01-07T10:34:21.053Z,100909.13
2024-01-07T10:36:51.289Z,100911.91
2024-01-07T10:39:22.463Z,100912.31
2024-01-07T10:41:54.177Z,100914.78
2024-01-07T10:44:24.809Z,100919.41
2024-01-07T10:46:52.581Z,100918.81
2024-01-07T10:49:20.409Z,100920.25
2024-01-07T10:51:48.131Z,100920.75
2024-01-07T10:54:15.904Z,100920.09
2024-01-07T10:56:43.550Z,100934.47
2024-01-07T10:59:11.290Z,100931.69
2024-01-07T11:01:40.522Z,100930.13
2024-01-07T11:04:08.521Z,100933.25
2024-01-07T11:06:36.556Z,100924.72
2024-01-07T11:09:04.713Z,100938.19
2024-01-07T11:11:32.802Z,100939.38
2024-01-07T11:14:00.979Z,100934.03
2024-01-07T11:16:38.505Z,100940.91
2024-01-07T11:19:08.711Z,100938.91
2024-01-07T11:21:37.824Z,100939.63
2024-01-07T11:24:11.922Z,100946.63
2024-01-07T11:26:43.659Z,100948.63
2024-01-07T11:29:12.111Z,100946.63
2024-01-07T11:31:40.409Z,100941.69
2024-01-07T11:34:09.060Z,100946.41
2024-01-07T11:36:36.966Z,100934.72
2024-01-07T11:39:05.150Z,100938.19
2024-01-07T11:41:32.894Z,100949.75
2024-01-07T11:44:05.211Z,100947.19
2024-01-07T11:46:35.786Z,100943.50
2024-01-07T11:49:04.241Z,100938.22
2024-01-07T11:51:32.771Z,100938.75
2024-01-07T11:54:01.015Z,100933.09
2024-01-07T11:56:28.752Z,100935.25
2024-01-07T11:58:57.521Z,100923.63
2024-01-07T12:01:27.034Z,100939.13
2024-01-07T12:03:57.846Z,100934.78
2024-01-07T12:06:30.902Z,100938.13
2024-01-07T12:09:06.238Z,100933.31
2024-01-07T12:11:45.554Z,100932.47
2024-01-07T12:14:17.854Z,100928.13
2024-01-07T12:16:46.628Z,100933.47
2024-01-07T12:19:14.563Z,100935.19
2024-01-07T12:21:41.583Z,100943.00
2024-01-07T12:24:09.415Z,100941.13
2024-01-07T12:26:38.781Z,100944.22
2024-01-07T12:29:08.069Z,100947.06
2024-01-07T12:31:36.144Z,100944.78
2024-01-07T12:34:04.325Z,100948.81
2024-01-07T12:36:33.367Z,100948.22
2024-01-07T12:39:01.131Z,100951.47
2024-01-07T12:41:30.477Z,100946.41
2024-01-07T12:43:58.452Z,100947.25
2024-01-07T12:46:26.607Z,100967.81
2024-01-07T12:48:54.554Z,100968.56
2024-01-07T12:51:24.374Z,100972.66
2024-01-07T12:53:52.520Z,100974.56
2024-01-07T12:56:20.522Z,100978.13
2024-01-07T12:58:48.449Z,100979.25
2024-01-07T13:01:16.391Z,100983.31
2024-01-07T13:03:44.280Z,100972.44
2024-01-07T13:06:13.326Z,100976.19
2024-01-07T13:08:41.281Z,100979.06
2024-01-07T13:11:10.158Z,100983.00
2024-01-07T13:13:38.530Z,100990.25
2024-01-07T13:16:06.470Z,100993.13
2024-01-07T13:18:35.202Z,100997.13
2024-01-07T13:21:02.964Z,100992.25
2024-01-07T13:23:30.938Z,100992.16
2024-01-07T13:25:58.670Z,100990.22
2024-01-07T13:28:26.598Z,101002.66
2024-01-07T13:30:54.556Z,100996.81
2024-01-07T13:33:23.107Z,101006.66
2024-01-07T13:35:50.919Z,101002.56
2024-01-07T13:38:19.195Z,101011.09
2024-01-07T13:40:46.956Z,101014.03
2024-01-07T13:43:14.960Z,101013.16
2024-01-07T13:45:42.820Z,101019.78
2024-01-07T13:48:10.650Z,101022.72
2024-01-07T13:50:38.502Z,101021.78
2024-01-07T13:53:06.222Z,101028.06
2024-01-07T13:55:33.943Z,101025.63
2024-01-07T13:58:02.055Z,101025.63
2024-01-07T14:00:30.575Z,101039.03
2024-01-07T14:02:58.329Z,101041.09
2024-01-07T14:05:26.068Z,101038.69
2024-01-07T14:07:54.061Z,101045.00
2024-01-07T14:10:21.826Z,101041.53
2024-01-07T14:12:49.712Z,101042.72
2024-01-07T14:15:18.463Z,101038.13
2024-01-07T14:17:46.346Z,101040.13
2024-01-07T14:20:14.144Z,101038.13
2024-01-07T14:22:41.876Z,101043.56
2024-01-07T14:25:09.915Z,101044.72
2024-01-07T14:27:37.732Z,101038.13
2024-01-07T14:30:05.474Z,101042.16
2024-01-07T14:32:34.421Z,101047.44
2024-01-07T14:35:02.451Z,101053.72
2024-01-07T14:37:30.274Z,101054.22
2024-01-07T14:39:58.115Z,101047.94
2024-01-07T14:42:26.157Z,101054.00
2024-01-07T14:44:53.914Z,101051.44
2024-01-07T14:47:22.706Z,101048.72
2024-01-07T14:49:50.729Z,101052.63
2024-01-07T14:52:18.492Z,101057.19
2024-01-07T14:54:46.405Z,101067.22
2024-01-07T14:57:14.108Z,101067.28
2024-01-07T14:59:41.798Z,101068.97
2024-01-07T15:02:11.676Z,101066.25
2024-01-07T15:04:41.511Z,101063.38
2024-01-07T15:07:09.300Z,101066.47
2024-01-07T15:09:37.368Z,101069.06
2024-01-07T15:12:05.174Z,101069.78
2024-01-07T15:14:32.884Z,101064.97
2024-01-07T15:17:00.921Z,101076.50
2024-01-07T15:19:28.750Z,101078.16
2024-01-07T15:21:56.557Z,101075.44
2024-01-07T15:24:24.329Z,101082.41
2024-01-07T15:26:52.099Z,101081.19
2024-01-07T15:29:21.049Z,101081.19
2024-01-07T15:31:48.852Z,101082.03
2024-01-07T15:34:16.811Z,101087.47
2024-01-07T15:36:53.704Z,101082.88
2024-01-07T15:39:21.598Z,101088.66
2024-01-07T15:41:49.402Z,101095.25
2024-01-07T15:44:17.193Z,101090.34
2024-01-07T15:46:44.881Z,101093.06
2024-01-07T15:49:12.743Z,101094.94
2024-01-07T15:51:42.159Z,101103.09
2024-01-07T15:54:09.920Z,101113.59
2024-01-07T15:56:38.092Z,101106.59
2024-01-07T15:59:05.844Z,101113.59
2024-01-07T16:01:33.648Z,101112.75
2024-01-07T16:04:01.729Z,101119.72
2024-01-07T16:06:29.709Z,101117.53
2024-01-07T16:08:58.033Z,101115.50
2024-01-07T16:11:26.235Z,101114.72
2024-01-07T16:13:54.244Z,101111.22
2024-01-07T16:16:21.917Z,101117.19
2024-01-07T16:18:50.476Z,101120.44
2024-01-07T16:21:21.980Z,101121.16
2024-01-07T16:23:50.881Z,101121.81
2024-01-07T16:26:19.680Z,101128.41
2024-01-07T16:28:48.086Z,101127.75
2024-01-07T16:31:16.165Z,101124.19
2024-01-07T16:33:44.791Z,101126.53
2024-01-07T16:36:12.755Z,101128.69
2024-01-07T16:38:40.760Z,101128.22
2024-01-07T16:41:09.500Z,101128.75
2024-01-07T16:43:37.628Z,101124.19
2024-01-07T16:46:05.309Z,101123.31
2024-01-07T16:51:03.957Z,101124.81
2024-01-07T16:53:31.834Z,101126.34
2024-01-07T16:55:59.686Z,101133.34
2024-01-07T16:58:27.458Z,101136.25
2024-01-07T17:00:58.405Z,101137.09
2024-01-07T17:03:26.258Z,101138.06
2024-01-07T17:05:54.056Z,101139.25
2024-01-07T17:08:21.864Z,101146.03
2024-01-07T17:10:49.613Z,101143.13
2024-01-07T17:13:17.638Z,101144.00
2024-01-07T17:15:45.483Z,101143.84
2024-01-07T17:18:13.593Z,101147.41
2024-01-07T17:20:42.729Z,101141.13
2024-01-07T17:23:10.740Z,101143.69
2024-01-07T17:25:38.803Z,101141.97
2024-01-07T17:28:07.434Z,101147.78
2024-01-07T17:30:36.317Z,101147.78
2024-01-07T17:33:04.458Z,101147.97
2024-01-07T17:35:32.570Z,101149.66
2024-01-07T17:38:00.489Z,101153.41
2024-01-07T17:40:28.172Z,101155.56
2024-01-07T17:42:56.230Z,101153.72
2024-01-07T17:45:24.998Z,101162.25
2024-01-07T17:47:54.337Z,101161.56
2024-01-07T17:50:22.577Z,101158.91
2024-01-07T17:52:51.782Z,101157.25
2024-01-07T17:55:20.233Z,101156.75
2024-01-07T17:57:48.996Z,101166.47
2024-01-07T18:00:19.497Z,101167.47
2024-01-07T18:02:47.919Z,101165.09
2024-01-07T18:05:16.449Z,101173.41
2024-01-07T18:07:44.453Z,101166.09
2024-01-07T18:10:12.912Z,101169.44
2024-01-07T18:12:40.833Z,101171.31
2024-01-07T18:15:08.982Z,101170.16
2024-01-07T18:17:37.210Z,101175.59
2024-01-07T18:20:05.385Z,101172.16
2024-01-07T18:22:33.618Z,101181.34
2024-01-07T18:25:01.350Z,101176.06
2024-01-07T18:27:29.041Z,101179.09
2024-01-07T18:29:58.162Z,101173.66
2024-01-07T18:32:26.029Z,101181.97
2024-01-07T18:34:54.730Z,101181.66
2024-01-07T18:37:22.859Z,101181.66
2024-01-07T18:39:50.506Z,101182.66
2024-01-07T18:42:18.214Z,101178.56
2024-01-07T18:44:46.000Z,101184.16
2024-01-07T18:47:14.732Z,101190.31
2024-01-07T18:49:42.498Z,101188.75
2024-01-07T18:52:13.557Z,101195.19
2024-01-07T18:54:42.572Z,101191.78
2024-01-07T18:57:10.463Z,101192.97
2024-01-07T18:59:38.223Z,101201.97
2024-01-07T19:02:05.991Z,101205.53
2024-01-07T19:04:33.778Z,101197.00
2024-01-07T19:07:02.452Z,101199.84
2024-01-07T19:09:30.065Z,101205.16
2024-01-07T19:11:57.743Z,101207.03
2024-01-07T19:14:25.700Z,101206.16
2024-01-07T19:16:53.532Z,101210.72
2024-01-07T19:19:21.614Z,101214.00
2024-01-07T19:21:49.366Z,101204.31
2024-01-07T19:24:17.053Z,101213.00
2024-01-07T19:26:46.595Z,101215.19
2024-01-07T19:29:14.486Z,101216.34
2024-01-07T19:31:42.447Z,101216.34
2024-01-07T19:34:10.432Z,101221.94
2024-01-07T19:36:38.128Z,101220.38
2024-01-07T19:39:08.109Z,101232.19
2024-01-07T19:41:38.017Z,101218.53
2024-01-07T19:44:06.020Z,101223.47
2024-01-07T19:46:33.747Z,101230.81
2024-01-07T19:49:02.321Z,101234.59
2024-01-07T19:51:29.973Z,101233.88
2024-01-07T19:53:57.815Z,101237.31
2024-01-07T19:56:25.805Z,101230.56
2024-01-07T19:58:53.734Z,101242.88
2024-01-07T20:01:21.601Z,101236.31
2024-01-07T20:03:49.407Z,101234.66
2024-01-07T20:06:17.370Z,101240.34
2024-01-07T20:08:45.232Z,101240.19
2024-01-07T20:11:13.015Z,101235.63
2024-01-07T20:13:40.671Z,101231.13
2024-01-07T20:16:08.381Z,101235.22
2024-01-07T20:18:36.259Z,101233.53
2024-01-07T20:21:03.963Z,101240.63
2024-01-07T20:23:31.744Z,101245.22
2024-01-07T20:26:00.775Z,101243.50
2024-01-07T20:28:28.575Z,101242.25
2024-01-07T20:30:56.350Z,101235.81
2024-01-07T20:33:24.239Z,101241.41
2024-01-07T20:35:55.809Z,101239.00
2024-01-07T20:38:24.514Z,101235.75
2024-01-07T20:40:52.344Z,101243.22
2024-01-07T20:43:20.091Z,101243.34
2024-01-07T20:45:47.847Z,101251.50
2024-01-07T20:48:15.723Z,101250.97
2024-01-07T20:50:43.421Z,101253.00
2024-01-07T20:53:11.205Z,101254.34
2024-01-07T20:55:40.160Z,101258.75
2024-01-07T20:58:08.204Z,101267.75
2024-01-07T21:00:36.004Z,101261.47
2024-01-07T21:03:04.590Z,101268.78
2024-01-07T21:05:32.443Z,101263.81
2024-01-07T21:08:00.322Z,101265.81
2024-01-07T21:10:28.300Z,101260.38
2024-01-07T21:12:58.843Z,101263.41
2024-01-07T21:15:27.064Z,101265.44
2024-01-07T21:18:01.139Z,101265.13
2024-01-07T21:20:29.054Z,101259.59
2024-01-07T21:22:56.972Z,101260.38
2024-01-07T21:25:24.859Z,101265.28
2024-01-07T21:27:52.585Z,101264.16
2024-01-07T21:30:20.478Z,101264.94
2024-01-07T21:32:48.486Z,101263.47
2024-01-07T21:35:16.224Z,101268.75
2024-01-07T21:37:44.830Z,101265.72
2024-01-07T21:40:12.993Z,101268.84
2024-01-07T21:42:41.026Z,101270.41
2024-01-07T21:45:08.703Z,101265.50
2024-01-07T21:47:36.581Z,101268.38
2024-01-07T21:50:04.609Z,101273.88
2024-01-07T21:52:32.436Z,101272.63
2024-01-07T21:55:00.278Z,101280.53
2024-01-07T21:57:28.558Z,101274.56
2024-01-07T21:59:56.732Z,101266.69
2024-01-07T22:02:24.547Z,101268.53
2024-01-07T22:04:52.373Z,101266.94
2024-01-07T22:07:21.899Z,101278.22
2024-01-07T22:09:49.691Z,101279.69
2024-01-07T22:12:17.605Z,101282.25
2024-01-07T22:14:45.290Z,101278.53
2024-01-07T22:17:13.000Z,101277.53
2024-01-07T22:19:40.770Z,101280.25
2024-01-07T22:22:09.270Z,101286.44
2024-01-07T22:24:36.924Z,101287.41
2024-01-07T22:27:04.619Z,101287.28
2024-01-07T22:29:32.316Z,101293.84
2024-01-07T22:32:00.362Z,101292.75
2024-01-07T22:34:28.277Z,101292.59
2024-01-07T22:36:55.993Z,101290.44
2024-01-07T22:39:26.086Z,101298.25
2024-01-07T22:41:53.798Z,101290.84
2024-01-07T22:44:21.598Z,101299.00
2024-01-07T22:46:50.614Z,101295.28
2024-01-07T22:49:18.701Z,101300.44
2024-01-07T22:51:46.618Z,101300.88
2024-01-07T22:54:14.379Z,101305.63
2024-01-07T22:56:42.976Z,101302.75
2024-01-07T22:59:12.358Z,101309.22
2024-01-07T23:01:40.626Z,101305.91
2024-01-07T23:04:08.522Z,101308.66
2024-01-07T23:06:38.461Z,101317.53
2024-01-07T23:09:06.792Z,101321.97
2024-01-07T23:11:35.246Z,101328.00
2024-01-07T23:14:06.228Z,101324.72
2024-01-07T23:16:36.034Z,101326.44
2024-01-07T23:19:07.113Z,101320.13
2024-01-07T23:21:38.952Z,101325.56
2024-01-07T23:24:07.599Z,101334.47
2024-01-07T23:26:35.908Z,101332.66
2024-01-07T23:29:03.958Z,101332.78
2024-01-07T23:31:31.838Z,101339.19
2024-01-07T23:34:01.670Z,101343.31
2024-01-07T23:36:31.502Z,101350.34
2024-01-07T23:39:00.813Z,101345.94
2024-01-07T23:41:28.907Z,101348.22
2024-01-07T23:43:56.737Z,101355.03
2024-01-07T23:46:24.534Z,101346.66
2024-01-07T23:48:52.260Z,101363.25
2024-01-07T23:51:22.379Z,101353.69
2024-01-07T23:53:50.133Z,101356.56
2024-01-07T23:56:17.952Z,101343.41
2024-01-07T23:58:45.807Z,101340.22
